Main page
METAR-TAF:

METAR-TAF

Airports :

Pirassununga, São Paulo, Brazil

latitude: 21-59S, longitude: 047-20W, elevation: 597 m

Current weather observation

The report was made 5 hours and 42 minutes ago, at 02:00 UTC
Wind 1 kt from the North/Northwest
Temperature 15°C
Humidity 94%
Pressure 1016 hPa
Visibility 10 km or more
no clouds below 1500 m and no cumulonimbus

METAR: SBYS 190200Z 33001KT CAVOK 15/14 Q1016

Time: 04:42 (07:42 UTC)

Forecast

The report was made 5 hours and 42 minutes ago, at 02:00 UTC
Forecast valid from 19 at 06 UTC to 19 at 18 UTC
Wind 5 kt from the South
Visibility: 0500 m
Broken clouds at a height of 500 ft
fog
Becoming
from 19 at 12 UTC to 19 at 14 UTC
Visibility: 7000 m
Scattered clouds at a height of 3000 ft

TAF: SBYS 190200Z 1906/1918 18005KT 0500 FG BKN005 TN12/1906Z TX28/1917Z BECMG 1912/1914 7000 SCT030 RMK PDE

Weather observations and forecasts of more than 4000 airports (METAR and TAF reports).

The available stations are represented by yellow and red dots on the map.

Hover mouse over dot to see the name of the station.

Then click to see weather observations and forecasts.

To change the map : click on the green buttons with a black cross to zoom in, on the green button with a dash to zoom out, or on the green arrows for adjacent maps.


METAR-TAF: